Time;durP1;ratioP1;P1;durP2;ratioP2;P2;SDS_P1;SDS_P2;PMS_P1;PMS_P2;Temp;Humidity;BMP_temperature;BMP_pressure;BME280_temperature;BME280_humidity;BME280_pressure;Samples;Min_cycle;Max_cycle;Signal;HPM_P1;HPM_P2
2021/07/27 00:01:08;;;;;;;20.23;11.73;;;;;;;22.51;75.94;101592.55;1748392;82;20924;-78
2021/07/27 00:03:37;;;;;;;21.02;11.65;;;;;;;22.43;76.14;101584.55;1748150;79;20963;-78
2021/07/27 00:06:05;;;;;;;24.00;13.13;;;;;;;22.37;76.45;101587.02;1748461;81;21150;-77
2021/07/27 00:08:35;;;;;;;22.42;11.25;;;;;;;22.31;76.88;101590.25;1748485;81;20943;-78
2021/07/27 00:11:06;;;;;;;27.73;13.13;;;;;;;22.26;76.82;101585.44;1748322;82;21470;-78
2021/07/27 00:13:33;;;;;;;26.45;12.05;;;;;;;22.23;77.16;101579.14;1748459;82;21030;-78
2021/07/27 00:16:02;;;;;;;24.67;12.68;;;;;;;22.22;77.41;101581.92;1748343;81;20975;-78
2021/07/27 00:18:30;;;;;;;24.67;12.63;;;;;;;22.20;77.54;101579.45;1748684;82;21825;-78
2021/07/27 00:21:01;;;;;;;24.75;12.20;;;;;;;22.19;77.60;101577.78;1748256;82;21035;-78
2021/07/27 00:23:28;;;;;;;28.02;12.50;;;;;;;22.15;77.88;101578.58;1748524;82;21048;-78
2021/07/27 00:25:55;;;;;;;24.95;12.75;;;;;;;22.13;78.18;101579.72;1748153;82;38659;-78
2021/07/27 00:28:22;;;;;;;23.57;11.28;;;;;;;22.11;78.33;101578.53;1748678;81;21046;-78
2021/07/27 00:30:48;;;;;;;24.30;12.25;;;;;;;22.08;78.47;101576.72;1748502;81;21110;-78
2021/07/27 00:33:15;;;;;;;30.10;12.53;;;;;;;22.03;78.70;101571.88;1748718;81;20899;-77
2021/07/27 00:35:44;;;;;;;26.40;12.63;;;;;;;21.98;78.72;101565.40;1747544;81;21627;-77
2021/07/27 00:38:22;;;;;;;31.33;11.70;;;;;;;21.94;78.70;101575.45;1746658;82;21098;-77
2021/07/27 00:40:48;;;;;;;25.52;12.03;;;;;;;21.91;78.88;101563.02;1746785;82;21093;-78
2021/07/27 00:43:17;;;;;;;21.25;12.45;;;;;;;21.91;79.26;101565.17;1746704;82;21143;-77
2021/07/27 00:45:44;;;;;;;23.95;12.98;;;;;;;21.91;79.72;101566.50;1746832;82;21442;-77
2021/07/27 00:48:11;;;;;;;21.10;11.33;;;;;;;21.92;79.95;101563.38;1747267;82;21018;-77
2021/07/27 00:50:38;;;;;;;27.02;13.10;;;;;;;21.92;80.36;101559.41;1746589;82;20880;-78
2021/07/27 00:53:05;;;;;;;24.70;11.75;;;;;;;21.91;80.75;101555.92;1746398;82;21011;-77
2021/07/27 00:55:33;;;;;;;22.32;12.20;;;;;;;21.93;80.78;101556.59;1746618;82;21139;-77
2021/07/27 00:58:00;;;;;;;22.95;12.10;;;;;;;21.91;80.44;101555.92;1746567;82;20919;-77
2021/07/27 01:00:27;;;;;;;22.10;12.05;;;;;;;21.88;80.19;101551.41;1746809;82;20915;-77
2021/07/27 01:02:54;;;;;;;23.92;11.80;;;;;;;21.83;80.05;101551.84;1746479;80;21003;-77
2021/07/27 01:05:20;;;;;;;25.37;12.20;;;;;;;21.78;80.06;101545.37;1746824;82;20982;-77
2021/07/27 01:07:47;;;;;;;20.88;11.35;;;;;;;21.74;80.33;101550.12;1746554;82;21524;-77
2021/07/27 01:10:18;;;;;;;23.32;12.15;;;;;;;21.71;80.41;101545.14;1723577;82;20967;-78
2021/07/27 01:12:46;;;;;;;21.75;11.63;;;;;;;21.69;80.67;101549.76;1747183;82;20970;-78
2021/07/27 01:15:15;;;;;;;27.55;12.10;;;;;;;21.68;80.84;101548.58;1746537;82;20975;-78
2021/07/27 01:17:43;;;;;;;22.62;12.03;;;;;;;21.64;80.98;101550.20;1746689;82;20999;-77
2021/07/27 01:39:21;;;;;;;32.40;12.80;;;;;;;21.59;82.18;101545.87;1746840;82;21033;-79
2021/07/27 01:42:05;;;;;;;28.07;12.43;;;;;;;21.60;82.22;101548.83;1746364;80;21514;-79
2021/07/27 01:44:46;;;;;;;25.68;12.15;;;;;;;21.60;82.28;101546.19;1746814;82;20955;-79
2021/07/27 01:47:22;;;;;;;25.92;11.85;;;;;;;21.59;82.44;101544.55;1746806;82;21828;-78
2021/07/27 01:49:50;;;;;;;25.57;11.88;;;;;;;21.58;82.46;101541.56;1746913;82;21014;-79
2021/07/27 01:52:17;;;;;;;26.20;11.73;;;;;;;21.58;82.47;101545.52;1747103;82;20954;-78
2021/07/27 01:54:53;;;;;;;29.20;12.63;;;;;;;21.57;82.54;101547.81;1747130;82;20888;-79
2021/07/27 01:57:20;;;;;;;26.10;12.63;;;;;;;21.57;82.69;101546.49;1747271;82;21037;-78
2021/07/27 02:00:05;;;;;;;22.55;11.22;;;;;;;21.57;82.71;101549.13;1747168;82;20987;-78
2021/07/27 02:02:32;;;;;;;30.27;12.53;;;;;;;21.57;82.37;101549.63;1746936;82;21003;-78
2021/07/27 02:04:59;;;;;;;22.95;11.73;;;;;;;21.53;82.25;101552.25;1746702;82;21010;-78
2021/07/27 02:07:25;;;;;;;29.18;11.43;;;;;;;21.50;82.33;101553.38;1723302;82;20975;-79
2021/07/27 02:10:01;;;;;;;26.02;11.97;;;;;;;21.47;82.06;101558.13;1746612;82;21132;-78
2021/07/27 02:12:24;;;;;;;24.05;12.00;;;;;;;21.44;82.03;101555.27;1745679;82;21146;-79
2021/07/27 02:15:07;;;;;;;25.52;12.68;;;;;;;21.42;82.29;101553.77;1746367;82;20998;-78
2021/07/27 02:17:35;;;;;;;27.13;12.28;;;;;;;21.38;82.60;101551.91;1723574;82;21599;-78
2021/07/27 02:20:05;;;;;;;24.18;10.70;;;;;;;21.34;82.78;101555.02;1746528;82;21018;-78
2021/07/27 02:22:36;;;;;;;38.53;12.47;;;;;;;21.32;83.01;101560.92;1746854;82;21566;-78
2021/07/27 02:25:05;;;;;;;32.08;12.73;;;;;;;21.29;82.92;101554.62;1747039;82;21143;-78
2021/07/27 02:27:31;;;;;;;26.20;12.88;;;;;;;21.26;82.96;101563.67;1746858;82;21608;-78
2021/07/27 02:30:06;;;;;;;30.40;12.98;;;;;;;21.23;83.07;101565.30;1746568;82;21026;-78
2021/07/27 02:32:34;;;;;;;25.10;12.75;;;;;;;21.19;83.20;101566.56;1746780;82;21007;-78
2021/07/27 02:35:00;;;;;;;29.65;11.65;;;;;;;21.15;83.44;101566.53;1746758;82;20975;-78
2021/07/27 02:37:31;;;;;;;28.00;12.15;;;;;;;21.14;83.86;101574.10;1748267;81;21160;-78
2021/07/27 02:39:57;;;;;;;38.90;13.25;;;;;;;21.13;84.03;101577.71;1748354;82;20935;-78
2021/07/27 02:42:24;;;;;;;34.20;13.25;;;;;;;21.09;83.98;101570.57;1748503;82;21517;-78
2021/07/27 02:44:50;;;;;;;33.73;12.88;;;;;;;21.04;84.10;101572.80;1748458;82;20982;-78
2021/07/27 02:47:17;;;;;;;33.70;12.05;;;;;;;21.01;84.05;101578.38;1748471;82;21077;-76
2021/07/27 02:49:43;;;;;;;32.88;12.50;;;;;;;21.00;84.11;101576.70;1748359;81;21034;-77
2021/07/27 02:52:12;;;;;;;34.18;13.62;;;;;;;20.99;84.39;101583.46;1748215;81;20935;-78
2021/07/27 02:54:38;;;;;;;28.02;13.45;;;;;;;21.02;84.95;101585.32;1748408;82;20844;-78
2021/07/27 02:57:06;;;;;;;36.05;15.18;;;;;;;21.05;85.11;101588.98;1748274;82;20970;-78
2021/07/27 02:59:34;;;;;;;40.33;13.10;;;;;;;21.10;84.85;101591.20;1748147;81;20943;-77
2021/07/27 03:02:01;;;;;;;39.92;12.98;;;;;;;21.12;85.03;101589.75;1748395;82;21768;-78
2021/07/27 03:04:28;;;;;;;30.68;12.00;;;;;;;21.12;85.16;101587.95;1748573;82;20998;-77
2021/07/27 03:06:56;;;;;;;37.75;14.28;;;;;;;21.13;85.07;101594.86;1748831;81;20947;-77
2021/07/27 03:09:25;;;;;;;43.92;14.10;;;;;;;21.14;85.03;101590.42;1748757;81;20903;-78
2021/07/27 03:11:51;;;;;;;41.92;14.70;;;;;;;21.14;84.97;101589.10;1749300;82;20919;-77
2021/07/27 03:14:19;;;;;;;30.77;14.38;;;;;;;21.12;85.27;101585.79;1748297;82;21472;-76
2021/07/27 03:16:46;;;;;;;32.60;14.47;;;;;;;21.08;85.05;101588.69;1748236;82;21472;-75
2021/07/27 03:19:12;;;;;;;36.63;13.32;;;;;;;21.02;84.82;101591.92;1748249;82;20990;-77
2021/07/27 03:21:39;;;;;;;42.93;13.20;;;;;;;20.99;84.53;101586.09;1748461;81;20956;-77
2021/07/27 03:24:05;;;;;;;36.93;13.85;;;;;;;20.97;84.74;101590.67;1748624;82;20928;-77
2021/07/27 03:26:32;;;;;;;31.52;14.03;;;;;;;20.96;85.18;101592.47;1748594;82;21135;-77
2021/07/27 03:28:59;;;;;;;35.10;13.95;;;;;;;20.97;85.36;101590.19;1747977;81;20986;-78
2021/07/27 03:31:30;;;;;;;35.33;13.32;;;;;;;20.97;85.68;101586.71;1748123;82;21002;-77
2021/07/27 03:33:56;;;;;;;31.73;13.90;;;;;;;20.98;85.78;101586.58;1748275;82;21035;-77
2021/07/27 03:36:23;;;;;;;30.77;14.23;;;;;;;21.01;85.82;101591.56;1748446;80;20974;-77
2021/07/27 03:38:51;;;;;;;26.33;15.18;;;;;;;21.03;85.68;101598.00;1748194;82;21513;-76
2021/07/27 03:41:17;;;;;;;38.10;16.55;;;;;;;21.05;85.49;101603.50;1748277;82;20942;-76
2021/07/27 03:43:45;;;;;;;27.27;16.17;;;;;;;21.07;85.38;101603.34;1748471;81;21462;-77
2021/07/27 03:46:11;;;;;;;25.55;16.75;;;;;;;21.07;85.40;101601.53;1748278;82;20998;-77
2021/07/27 03:48:38;;;;;;;26.60;13.78;;;;;;;21.12;85.51;101600.30;1748474;82;20872;-76
2021/07/27 03:51:04;;;;;;;21.77;11.18;;;;;;;21.16;83.87;101599.85;1748201;82;21135;-76
2021/07/27 03:53:32;;;;;;;25.77;12.20;;;;;;;21.24;82.16;101605.24;1748153;82;20923;-77
2021/07/27 03:55:59;;;;;;;27.55;12.07;;;;;;;21.33;80.59;101607.48;1748026;82;21049;-77
2021/07/27 03:58:25;;;;;;;23.77;12.58;;;;;;;21.40;79.98;101609.39;1748384;82;20966;-78
2021/07/27 04:00:52;;;;;;;36.48;12.93;;;;;;;21.46;80.36;101604.83;1748438;82;21128;-76
2021/07/27 04:03:18;;;;;;;29.05;14.70;;;;;;;21.52;79.62;101608.20;1748353;82;21147;-76
2021/07/27 04:05:45;;;;;;;25.27;12.23;;;;;;;21.57;79.55;101609.05;1748252;82;20967;-73
2021/07/27 04:08:12;;;;;;;21.60;11.83;;;;;;;21.61;78.95;101618.34;1748194;82;20993;-77
2021/07/27 04:10:39;;;;;;;22.48;12.15;;;;;;;21.64;77.64;101611.45;1748363;82;20891;-78
2021/07/27 04:13:07;;;;;;;19.70;10.72;;;;;;;21.69;77.02;101605.72;1748272;81;20923;-78
2021/07/27 04:15:39;;;;;;;25.48;12.00;;;;;;;21.72;76.30;101609.39;1750037;82;21166;-78
2021/07/27 04:18:06;;;;;;;31.30;11.90;;;;;;;21.73;76.79;101613.19;1750916;82;20912;-77
2021/07/27 04:20:33;;;;;;;24.50;11.45;;;;;;;21.75;77.00;101613.88;1750593;79;20884;-78
2021/07/27 04:23:01;;;;;;;19.12;11.63;;;;;;;21.80;77.37;101620.02;1752470;79;21045;-77
2021/07/27 04:25:29;;;;;;;23.30;12.65;;;;;;;21.84;77.37;101622.22;1752320;79;20852;-77
2021/07/27 04:27:57;;;;;;;17.77;10.82;;;;;;;21.88;77.14;101624.91;1752282;80;21107;-77
2021/07/27 04:30:24;;;;;;;20.27;10.75;;;;;;;21.90;76.90;101628.26;1752702;79;20891;-77
2021/07/27 04:32:51;;;;;;;16.95;9.50;;;;;;;21.93;75.99;101623.98;1748658;82;21616;-78
2021/07/27 04:35:18;;;;;;;20.65;9.03;;;;;;;21.96;75.55;101626.81;1748385;82;20990;-78
2021/07/27 04:37:45;;;;;;;14.25;8.40;;;;;;;22.00;74.72;101624.21;1746746;81;20931;-78
2021/07/27 04:40:13;;;;;;;15.13;7.85;;;;;;;22.04;74.42;101615.00;1746354;82;21785;-78
2021/07/27 04:42:42;;;;;;;15.18;8.23;;;;;;;22.10;74.16;101621.00;1746518;82;20899;-78
2021/07/27 04:45:09;;;;;;;18.85;8.15;;;;;;;22.15;73.59;101619.55;1746814;82;21462;-79
2021/07/27 04:47:36;;;;;;;20.37;8.53;;;;;;;22.19;73.42;101614.80;1746586;82;20967;-79
2021/07/27 04:50:07;;;;;;;19.70;8.10;;;;;;;22.24;73.24;101613.83;1746739;82;20983;-78
2021/07/27 04:52:35;;;;;;;23.45;9.18;;;;;;;22.29;72.91;101603.64;1746623;82;21124;-78
2021/07/27 04:55:02;;;;;;;20.00;8.10;;;;;;;22.33;72.85;101602.84;1746512;82;21002;-79
2021/07/27 04:57:28;;;;;;;20.57;7.45;;;;;;;22.39;72.82;101602.22;1746866;82;20891;-78
2021/07/27 04:59:55;;;;;;;19.37;7.37;;;;;;;22.47;72.91;101610.20;1746598;82;21509;-78
2021/07/27 05:02:23;;;;;;;20.55;8.13;;;;;;;22.53;72.49;101603.80;1746689;82;21059;-78
2021/07/27 05:04:49;;;;;;;16.50;9.00;;;;;;;22.60;72.24;101604.84;1746560;82;21131;-78
2021/07/27 05:07:16;;;;;;;17.77;9.08;;;;;;;22.69;71.78;101597.00;1746634;82;20963;-78
2021/07/27 05:09:42;;;;;;;14.40;8.75;;;;;;;22.75;71.43;101597.16;1746823;82;21011;-78
2021/07/27 05:12:09;;;;;;;16.02;7.45;;;;;;;22.80;70.68;101593.58;1746669;82;20856;-78
2021/07/27 05:14:35;;;;;;;17.55;6.75;;;;;;;22.86;70.09;101600.88;1746225;82;20935;-78
2021/07/27 05:17:11;;;;;;;13.70;6.83;;;;;;;22.92;69.42;101598.92;1746580;82;21515;-78
2021/07/27 05:19:52;;;;;;;16.50;7.17;;;;;;;22.97;68.14;101607.23;1746592;82;20908;-78
2021/07/27 05:22:20;;;;;;;14.63;6.97;;;;;;;23.03;67.64;101611.05;1746563;82;20951;-77
2021/07/27 05:24:48;;;;;;;14.45;6.90;;;;;;;23.09;67.56;101611.25;1746756;82;20944;-77
2021/07/27 05:27:15;;;;;;;16.17;7.20;;;;;;;23.14;67.03;101611.59;1747192;80;21005;-77
2021/07/27 05:29:42;;;;;;;11.12;7.30;;;;;;;23.19;66.89;101612.45;1747314;82;21134;-77
2021/07/27 05:32:08;;;;;;;14.98;8.05;;;;;;;23.24;66.98;101614.59;1747015;82;20912;-78
2021/07/27 05:34:35;;;;;;;11.53;7.55;;;;;;;23.28;66.56;101610.65;1746262;80;21007;-78
2021/07/27 05:37:02;;;;;;;16.42;7.47;;;;;;;23.34;66.24;101616.13;1746324;81;21066;-78
2021/07/27 05:39:29;;;;;;;18.32;8.60;;;;;;;23.40;65.16;101619.49;1746643;82;20983;-78
2021/07/27 05:41:56;;;;;;;19.05;8.65;;;;;;;23.46;64.32;101620.17;1746445;82;21165;-78
2021/07/27 05:44:26;;;;;;;14.45;8.28;;;;;;;23.52;63.67;101619.52;1746469;82;20982;-78
2021/07/27 05:46:54;;;;;;;18.90;9.93;;;;;;;23.58;63.29;101624.17;1746589;82;21074;-78
2021/07/27 05:49:21;;;;;;;15.80;8.88;;;;;;;23.62;62.75;101624.19;1746720;82;21005;-76
2021/07/27 05:51:48;;;;;;;14.40;8.90;;;;;;;23.71;62.15;101631.16;1746522;82;21403;-77
2021/07/27 05:54:20;;;;;;;13.43;7.75;;;;;;;23.78;61.64;101626.03;1746725;82;21143;-77
2021/07/27 05:56:48;;;;;;;15.53;7.03;;;;;;;23.84;61.48;101624.05;1746700;82;21042;-78
2021/07/27 05:59:16;;;;;;;14.98;7.10;;;;;;;23.92;61.30;101629.38;1746533;82;20970;-77
2021/07/27 06:01:43;;;;;;;11.73;6.60;;;;;;;24.00;61.06;101638.65;1746662;82;20994;-77
2021/07/27 06:04:10;;;;;;;12.30;6.37;;;;;;;24.08;60.67;101635.19;1746673;82;21100;-78
2021/07/27 06:06:37;;;;;;;21.17;7.55;;;;;;;24.14;60.25;101635.39;1746551;80;21135;-79
2021/07/27 06:09:07;;;;;;;18.95;6.95;;;;;;;24.24;59.47;101637.88;1746244;82;21560;-77
2021/07/27 06:11:40;;;;;;;12.95;6.12;;;;;;;24.35;59.09;101634.03;1750066;82;21002;-78
2021/07/27 06:14:07;;;;;;;11.93;6.42;;;;;;;24.43;57.99;101631.39;1725659;82;21003;-79
2021/07/27 06:16:37;;;;;;;13.70;5.85;;;;;;;24.52;57.46;101626.40;1746857;82;20999;-78
2021/07/27 06:19:07;;;;;;;11.70;5.92;;;;;;;24.61;57.46;101616.09;1798614;79;21120;-77
2021/07/27 06:21:38;;;;;;;13.25;5.55;;;;;;;24.71;57.21;101616.24;1800478;79;21523;-78
2021/07/27 06:24:07;;;;;;;13.03;4.78;;;;;;;24.80;57.04;101611.73;1800695;78;20945;-78
2021/07/27 06:26:36;;;;;;;13.05;5.22;;;;;;;24.91;56.64;101610.58;1800483;78;20965;-79
2021/07/27 06:29:04;;;;;;;16.45;5.30;;;;;;;25.02;56.03;101606.20;1800555;79;21655;-77
2021/07/27 06:31:32;;;;;;;12.50;6.60;;;;;;;25.12;55.75;101605.50;1800619;79;22001;-77
2021/07/27 06:33:58;;;;;;;13.55;6.08;;;;;;;25.21;55.38;101607.95;1800184;79;20994;-77
2021/07/27 06:36:33;;;;;;;13.93;6.00;;;;;;;25.32;55.16;101612.05;1800699;79;21595;-78
2021/07/27 06:38:55;;;;;;;12.25;6.17;;;;;;;25.41;55.19;101611.50;1812602;79;20992;-78
2021/07/27 06:41:22;;;;;;;19.17;6.25;;;;;;;25.49;54.68;101616.33;1815278;78;21028;-81
2021/07/27 06:43:50;;;;;;;18.15;6.65;;;;;;;25.59;54.46;101612.91;1816558;79;21105;-77
2021/07/27 06:46:16;;;;;;;17.45;8.85;;;;;;;25.70;54.46;101619.66;1813947;79;21028;-77
2021/07/27 06:48:44;;;;;;;18.52;9.60;;;;;;;25.81;53.34;101609.97;1814264;78;20965;-78
2021/07/27 06:51:13;;;;;;;19.15;10.58;;;;;;;25.93;52.74;101617.02;1813626;78;20925;-76
2021/07/27 06:53:41;;;;;;;19.65;11.40;;;;;;;26.02;51.68;101617.27;1813720;78;20965;-77
2021/07/27 06:56:08;;;;;;;22.52;10.85;;;;;;;26.14;51.04;101617.99;1814295;78;21124;-77
2021/07/27 06:58:36;;;;;;;17.05;8.40;;;;;;;26.22;51.28;101606.50;1802001;79;20874;-77
2021/07/27 07:01:04;;;;;;;11.80;7.42;;;;;;;26.32;51.50;101609.73;1785325;78;21603;-77
2021/07/27 07:03:34;;;;;;;18.98;6.70;;;;;;;26.40;51.17;101607.48;1754020;78;21037;-79
2021/07/27 07:06:01;;;;;;;13.65;7.35;;;;;;;26.51;49.85;101609.71;1812408;78;21055;-75
2021/07/27 07:08:27;;;;;;;19.90;8.83;;;;;;;26.68;50.28;101617.33;1789847;78;21152;-76
2021/07/27 07:10:58;;;;;;;17.82;9.65;;;;;;;26.81;50.44;101604.23;1812266;79;20965;-74
2021/07/27 07:13:24;;;;;;;15.48;7.62;;;;;;;26.93;50.88;101613.11;1812180;78;21578;-76
2021/07/27 07:15:53;;;;;;;18.30;8.68;;;;;;;27.07;50.84;101610.92;1812197;78;21012;-77
2021/07/27 07:18:20;;;;;;;13.18;6.70;;;;;;;27.15;50.88;101610.33;1812683;78;21045;-79
2021/07/27 07:20:48;;;;;;;12.40;5.97;;;;;;;27.24;50.45;101617.20;1812721;78;21088;-74
2021/07/27 07:23:15;;;;;;;12.88;5.78;;;;;;;27.34;48.69;101624.91;1813011;79;20966;-75
2021/07/27 07:25:43;;;;;;;32.48;6.55;;;;;;;27.45;47.48;101624.43;1821176;78;21007;-76
2021/07/27 07:28:11;;;;;;;14.20;4.80;;;;;;;27.52;46.75;101629.34;1818431;78;22217;-74
2021/07/27 07:30:38;;;;;;;15.50;4.75;;;;;;;27.59;45.81;101632.91;1818678;78;20961;-76
2021/07/27 07:33:05;;;;;;;12.07;4.80;;;;;;;27.65;45.63;101628.66;1817911;78;21111;-76
2021/07/27 07:35:41;;;;;;;10.98;5.62;;;;;;;27.68;46.23;101622.94;1818444;78;21080;-80
2021/07/27 07:38:09;;;;;;;12.80;5.75;;;;;;;27.72;46.64;101630.39;1818089;78;21040;-75
2021/07/27 07:40:36;;;;;;;12.47;5.60;;;;;;;27.76;47.52;101628.97;1818507;78;21021;-77
2021/07/27 07:43:04;;;;;;;11.75;5.83;;;;;;;27.81;46.98;101626.58;1818526;78;21098;-77
2021/07/27 07:45:31;;;;;;;19.52;6.17;;;;;;;27.87;47.48;101630.31;1818374;78;21086;-76
2021/07/27 07:47:58;;;;;;;14.90;5.70;;;;;;;27.92;48.08;101623.88;1818578;78;21072;-83
2021/07/27 07:50:28;;;;;;;12.98;5.50;;;;;;;27.99;48.38;101619.94;1818664;78;21539;-75
2021/07/27 07:53:03;;;;;;;8.98;5.20;;;;;;;28.04;48.90;101623.71;1818041;78;20933;-76
2021/07/27 07:55:29;;;;;;;10.75;4.40;;;;;;;28.09;48.73;101617.81;1818454;78;21043;-76
2021/07/27 07:57:56;;;;;;;10.72;5.50;;;;;;;28.12;47.70;101614.25;1817819;78;21130;-75
2021/07/27 08:00:24;;;;;;;13.83;5.55;;;;;;;28.22;48.78;101617.92;1817938;78;20993;-76
2021/07/27 08:02:54;;;;;;;11.22;4.65;;;;;;;28.28;48.99;101614.48;1818309;78;20932;-79
2021/07/27 08:05:21;;;;;;;13.00;4.80;;;;;;;28.36;45.98;101612.51;1818605;78;21005;-73
2021/07/27 08:07:49;;;;;;;11.05;4.30;;;;;;;28.46;45.23;101612.17;1818221;78;21107;-75
2021/07/27 08:10:16;;;;;;;7.92;3.67;;;;;;;28.51;45.47;101613.73;1818316;77;21111;-76
2021/07/27 08:12:44;;;;;;;7.42;4.00;;;;;;;28.55;42.83;101610.98;1818223;78;21076;-74
2021/07/27 08:15:11;;;;;;;7.42;4.00;;;;;;;28.60;42.86;101615.22;1818734;78;20952;-74
2021/07/27 08:17:39;;;;;;;9.03;3.70;;;;;;;28.66;41.55;101609.13;1818452;78;21055;-75
2021/07/27 08:20:06;;;;;;;7.15;3.37;;;;;;;28.70;41.67;101609.56;1818865;78;21015;-74
2021/07/27 08:22:43;;;;;;;6.75;3.83;;;;;;;28.78;41.26;101604.07;1818899;78;21069;-75
2021/07/27 08:25:18;;;;;;;4.92;3.50;;;;;;;28.88;41.63;101604.51;1819120;78;21020;-85
2021/07/27 08:27:45;;;;;;;8.88;4.30;;;;;;;28.98;40.20;101610.32;1818683;78;21064;-75
2021/07/27 08:30:13;;;;;;;9.70;3.95;;;;;;;29.01;40.28;101607.75;1818255;78;21107;-72
2021/07/27 08:32:46;;;;;;;15.80;4.15;;;;;;;29.08;40.83;101606.77;1818369;78;21044;-74
2021/07/27 08:35:14;;;;;;;9.68;4.05;;;;;;;29.17;40.68;101615.44;1818129;78;21780;-76
2021/07/27 08:37:41;;;;;;;4.95;3.75;;;;;;;29.19;40.54;101604.05;1818778;78;20960;-76
2021/07/27 08:40:09;;;;;;;12.75;3.50;;;;;;;29.25;42.24;101613.46;1793552;78;20917;-82
2021/07/27 08:42:39;;;;;;;8.78;4.00;;;;;;;29.36;41.43;101620.05;1818043;78;21749;-77
2021/07/27 08:45:07;;;;;;;5.15;3.92;;;;;;;29.44;40.76;101615.05;1818465;78;21591;-81
2021/07/27 08:47:34;;;;;;;5.45;3.70;;;;;;;29.51;40.21;101609.22;1818429;78;21771;-77
2021/07/27 08:50:02;;;;;;;7.95;3.98;;;;;;;29.52;40.93;101608.17;1818472;78;21056;-76
2021/07/27 08:52:29;;;;;;;7.92;4.03;;;;;;;29.59;41.50;101611.18;1818649;78;21012;-73
2021/07/27 08:54:57;;;;;;;5.78;4.30;;;;;;;29.70;42.06;101610.59;1818588;78;20949;-74
2021/07/27 08:57:24;;;;;;;5.97;3.95;;;;;;;29.79;40.45;101609.87;1818311;78;21483;-76
2021/07/27 08:59:54;;;;;;;4.83;3.60;;;;;;;29.80;41.00;101608.32;1818431;78;20984;-73
2021/07/27 09:02:27;;;;;;;6.70;3.83;;;;;;;29.81;41.11;101605.14;1817155;78;20964;-72
2021/07/27 09:05:12;;;;;;;8.48;4.08;;;;;;;29.87;41.82;101603.01;1819182;78;21652;-75
2021/07/27 09:07:39;;;;;;;6.78;4.00;;;;;;;29.99;41.34;101608.08;1818445;78;21096;-74
2021/07/27 09:10:20;;;;;;;7.83;3.65;;;;;;;30.03;41.72;101599.13;1818036;78;21075;-78
2021/07/27 09:13:07;;;;;;;10.17;4.17;;;;;;;30.10;41.80;101599.92;1818814;78;21148;-78
2021/07/27 09:15:39;;;;;;;10.85;4.08;;;;;;;30.21;38.82;101604.16;1818495;78;21007;-75
2021/07/27 09:18:16;;;;;;;8.55;4.42;;;;;;;30.22;39.06;101601.77;1818394;78;20981;-75
2021/07/27 09:20:47;;;;;;;7.05;3.90;;;;;;;30.27;39.68;101589.95;1818618;78;20980;-77
2021/07/27 09:23:18;;;;;;;9.48;4.22;;;;;;;30.32;39.69;101596.83;1818574;78;21106;-80
2021/07/27 09:25:51;;;;;;;14.07;4.17;;;;;;;30.32;39.34;101586.63;1818369;78;21329;-74
2021/07/27 09:28:19;;;;;;;5.35;3.40;;;;;;;30.35;40.38;101590.22;1818241;78;20929;-78
2021/07/27 09:30:47;;;;;;;8.45;4.15;;;;;;;30.41;39.67;101594.27;1793474;78;21609;-74
2021/07/27 09:33:16;;;;;;;11.60;3.87;;;;;;;30.49;40.35;101593.23;1818378;78;21028;-74
2021/07/27 09:35:45;;;;;;;11.00;5.42;;;;;;;30.63;40.64;101592.70;1819138;78;20972;-71
2021/07/27 09:38:17;;;;;;;6.62;4.30;;;;;;;30.74;38.85;101598.22;1819014;78;21156;-74
2021/07/27 09:41:00;;;;;;;9.95;4.22;;;;;;;30.75;38.85;101593.69;1832513;78;20972;-75
2021/07/27 09:43:27;;;;;;;13.40;4.20;;;;;;;30.79;37.69;101594.38;1819473;78;20953;-73
2021/07/27 09:46:00;;;;;;;10.08;4.37;;;;;;;30.76;38.17;101593.45;1796650;79;21054;-73
2021/07/27 09:48:28;;;;;;;7.35;4.50;;;;;;;30.84;39.13;101593.23;1767662;79;21051;-75
2021/07/27 09:50:56;;;;;;;8.70;4.42;;;;;;;31.00;39.14;101596.50;1766434;81;21961;-74
2021/07/27 09:53:23;;;;;;;9.00;4.03;;;;;;;31.07;36.85;101592.77;1765801;81;21007;-76
2021/07/27 09:55:53;;;;;;;13.13;4.42;;;;;;;31.07;36.46;101594.11;1766552;81;21733;-75
2021/07/27 09:58:19;;;;;;;12.53;4.40;;;;;;;31.11;36.95;101596.65;1765888;81;21043;-74
2021/07/27 10:01:02;;;;;;;11.48;4.75;;;;;;;31.21;37.36;101596.19;1766421;81;21064;-76
2021/07/27 10:03:33;;;;;;;8.60;3.90;;;;;;;31.31;36.84;101599.23;1766100;81;21567;-75
2021/07/27 10:06:03;;;;;;;9.58;4.35;;;;;;;32.00;35.51;101591.17;1766183;81;21048;-77
2021/07/27 10:08:31;;;;;;;11.38;4.50;;;;;;;32.82;34.55;101593.48;1766150;80;20985;-74
2021/07/27 10:11:12;;;;;;;11.12;4.40;;;;;;;33.52;33.15;101586.56;1766656;81;20957;-81
2021/07/27 10:13:45;;;;;;;8.18;4.37;;;;;;;34.26;31.85;101588.41;1766272;81;21601;-80
2021/07/27 10:16:24;;;;;;;5.83;3.62;;;;;;;34.72;31.38;101584.32;1766910;81;21863;-74
2021/07/27 10:18:56;;;;;;;9.95;3.77;;;;;;;35.38;30.46;101577.02;1768543;81;21000;-78
2021/07/27 10:21:26;;;;;;;9.00;4.17;;;;;;;35.99;28.54;101575.36;1745168;81;21068;-78
2021/07/27 10:24:01;;;;;;;9.70;4.17;;;;;;;36.21;27.69;101576.26;1767574;81;21570;-78
2021/07/27 10:26:32;;;;;;;9.65;3.60;;;;;;;35.98;27.57;101576.41;1763145;81;21484;-81
2021/07/27 10:29:00;;;;;;;8.60;3.80;;;;;;;35.56;28.22;101575.97;1766029;81;21091;-72
2021/07/27 10:31:39;;;;;;;4.85;3.65;;;;;;;35.39;28.29;101568.37;1766126;81;21531;-75
2021/07/27 10:34:08;;;;;;;5.85;3.50;;;;;;;35.31;28.91;101562.03;1766217;81;21104;-77
2021/07/27 10:36:40;;;;;;;9.75;3.72;;;;;;;35.28;28.52;101563.34;1766313;81;21547;-76
2021/07/27 10:39:17;;;;;;;6.83;3.85;;;;;;;35.10;29.53;101557.34;1779626;80;21016;-75
2021/07/27 10:41:49;;;;;;;7.80;4.05;;;;;;;35.08;30.23;101558.87;1790934;80;21779;-74
2021/07/27 10:44:20;;;;;;;11.53;3.55;;;;;;;34.95;29.29;101554.59;1827200;78;21027;-73
2021/07/27 10:46:51;;;;;;;7.72;3.77;;;;;;;34.71;28.89;101557.61;1818974;78;21677;-85
2021/07/27 10:49:22;;;;;;;7.15;3.83;;;;;;;34.39;30.07;101554.48;1819083;78;21084;-73
2021/07/27 10:52:01;;;;;;;4.95;3.47;;;;;;;34.05;30.22;101558.27;1818575;78;21480;-73
2021/07/27 10:54:32;;;;;;;4.72;3.62;;;;;;;33.74;30.74;101548.36;1818754;78;21753;-73
2021/07/27 10:57:04;;;;;;;12.15;5.20;;;;;;;33.62;30.75;101544.83;1819178;78;21425;-74
2021/07/27 10:59:35;;;;;;;7.40;4.45;;;;;;;33.57;30.69;101543.34;1818608;78;21582;-73
2021/07/27 11:02:13;;;;;;;11.08;3.95;;;;;;;33.50;31.35;101545.61;1819014;78;20994;-77
2021/07/27 11:04:40;;;;;;;8.98;3.92;;;;;;;33.47;30.97;101539.88;1818927;78;21048;-73
2021/07/27 11:07:15;;;;;;;6.03;3.50;;;;;;;33.39;30.14;101542.36;1818339;78;21187;-76
2021/07/27 11:09:53;;;;;;;5.42;3.83;;;;;;;33.48;30.21;101537.45;1818308;78;21059;-84
2021/07/27 11:12:36;;;;;;;9.43;3.83;;;;;;;33.41;29.87;101542.14;1818941;78;21036;-76
2021/07/27 11:15:09;;;;;;;8.85;3.65;;;;;;;33.28;30.75;101535.05;1818677;78;20965;-76
2021/07/27 11:17:45;;;;;;;8.68;4.00;;;;;;;33.59;29.81;101539.36;1819534;78;20906;-75
2021/07/27 11:20:16;;;;;;;9.70;3.98;;;;;;;33.73;29.02;101536.77;1818434;78;21118;-74
2021/07/27 11:22:50;;;;;;;5.67;3.80;;;;;;;33.70;30.15;101533.19;1818651;78;21016;-76
2021/07/27 11:25:23;;;;;;;6.83;3.67;;;;;;;33.84;29.23;101534.63;1818389;76;21476;-79
2021/07/27 11:27:50;;;;;;;4.83;3.77;;;;;;;33.71;28.24;101536.19;1818376;78;21040;-72
2021/07/27 11:30:20;;;;;;;5.80;4.00;;;;;;;33.44;29.00;101536.30;1818970;78;21048;-74
2021/07/27 11:32:50;;;;;;;7.95;4.20;;;;;;;33.34;29.85;101524.75;1818389;78;21107;-73
2021/07/27 11:35:22;;;;;;;8.77;4.10;;;;;;;33.38;29.34;101523.73;1818891;78;20980;-73
2021/07/27 11:37:59;;;;;;;;;;;;;;;33.41;29.88;101530.03;1821495;78;21115;-74
2021/07/27 11:40:29;;;;;;;5.47;3.52;;;;;;;33.49;30.14;101522.95;1807952;78;20177;-75
2021/07/27 11:43:06;;;;;;;5.90;3.62;;;;;;;33.60;29.00;101520.85;1801760;79;21045;-82
2021/07/27 11:45:39;;;;;;;5.90;3.70;;;;;;;33.58;27.56;101523.42;1801556;79;21189;-74